sensor_id;sensor_type;location;lat;lon;timestamp;pressure;altitude;pressure_sealevel;temperature;humidity
70343;BME280;57767;42.068;24.752;2023-08-20T00:00:09;99003.13;;;24.63;45.30
70343;BME280;57767;42.068;24.752;2023-08-20T00:01:12;99001.53;;;24.62;45.43
70343;BME280;57767;42.068;24.752;2023-08-20T00:02:15;98997.00;;;24.58;46.15
70343;BME280;57767;42.068;24.752;2023-08-20T00:03:20;99002.13;;;24.59;46.32
70343;BME280;57767;42.068;24.752;2023-08-20T00:04:26;98997.91;;;24.53;45.96
70343;BME280;57767;42.068;24.752;2023-08-20T00:05:32;99002.72;;;24.56;45.54
70343;BME280;57767;42.068;24.752;2023-08-20T00:06:34;99002.22;;;24.54;45.50
70343;BME280;57767;42.068;24.752;2023-08-20T00:07:36;99007.91;;;24.53;45.73
70343;BME280;57767;42.068;24.752;2023-08-20T00:08:38;98997.41;;;24.51;45.44
70343;BME280;57767;42.068;24.752;2023-08-20T00:09:40;99003.09;;;24.50;45.59
70343;BME280;57767;42.068;24.752;2023-08-20T00:10:42;98996.38;;;24.47;45.37
70343;BME280;57767;42.068;24.752;2023-08-20T00:11:45;98993.69;;;24.47;45.44
70343;BME280;57767;42.068;24.752;2023-08-20T00:12:47;98996.38;;;24.47;45.75
70343;BME280;57767;42.068;24.752;2023-08-20T00:13:49;98989.38;;;24.46;45.40
70343;BME280;57767;42.068;24.752;2023-08-20T00:14:59;98997.75;;;24.45;45.58
70343;BME280;57767;42.068;24.752;2023-08-20T00:16:07;98993.50;;;24.44;45.64
70343;BME280;57767;42.068;24.752;2023-08-20T00:17:09;98998.66;;;24.40;45.87
70343;BME280;57767;42.068;24.752;2023-08-20T00:18:11;98983.56;;;24.39;45.98
70343;BME280;57767;42.068;24.752;2023-08-20T00:19:13;98993.84;;;24.37;45.76
70343;BME280;57767;42.068;24.752;2023-08-20T00:20:15;98991.97;;;24.38;46.24
70343;BME280;57767;42.068;24.752;2023-08-20T00:21:18;98991.44;;;24.36;45.88
70343;BME280;57767;42.068;24.752;2023-08-20T00:22:25;98994.44;;;24.34;45.97
70343;BME280;57767;42.068;24.752;2023-08-20T00:23:27;98997.13;;;24.34;45.92
70343;BME280;57767;42.068;24.752;2023-08-20T00:24:29;98993.91;;;24.32;45.87
70343;BME280;57767;42.068;24.752;2023-08-20T00:25:31;98989.44;;;24.27;46.16
70343;BME280;57767;42.068;24.752;2023-08-20T00:26:34;98988.91;;;24.25;45.89
70343;BME280;57767;42.068;24.752;2023-08-20T00:27:36;98989.19;;;24.24;45.99
70343;BME280;57767;42.068;24.752;2023-08-20T00:28:42;98996.50;;;24.23;45.51
70343;BME280;57767;42.068;24.752;2023-08-20T00:29:44;98984.66;;;24.19;45.89
70343;BME280;57767;42.068;24.752;2023-08-20T00:30:46;98988.47;;;24.18;45.90
70343;BME280;57767;42.068;24.752;2023-08-20T00:31:48;98986.56;;;24.19;45.74
70343;BME280;57767;42.068;24.752;2023-08-20T00:32:50;98977.16;;;24.16;45.59
70343;BME280;57767;42.068;24.752;2023-08-20T00:33:52;98984.47;;;24.16;46.06
70343;BME280;57767;42.068;24.752;2023-08-20T00:35:06;98978.31;;;24.10;46.04
70343;BME280;57767;42.068;24.752;2023-08-20T00:36:11;98983.44;;;24.12;46.58
70343;BME280;57767;42.068;24.752;2023-08-20T00:37:13;98975.09;;;24.08;46.59
70343;BME280;57767;42.068;24.752;2023-08-20T00:38:15;98984.22;;;24.12;46.42
70343;BME280;57767;42.068;24.752;2023-08-20T00:39:16;98982.91;;;24.10;46.40
70343;BME280;57767;42.068;24.752;2023-08-20T00:40:19;98980.22;;;24.10;46.61
70343;BME280;57767;42.068;24.752;2023-08-20T00:41:20;98978.91;;;24.07;46.61
70343;BME280;57767;42.068;24.752;2023-08-20T00:42:22;98975.72;;;24.05;46.80
70343;BME280;57767;42.068;24.752;2023-08-20T00:43:26;98978.47;;;24.00;46.78
70343;BME280;57767;42.068;24.752;2023-08-20T00:44:28;98983.06;;;24.00;46.43
70343;BME280;57767;42.068;24.752;2023-08-20T00:45:30;98980.38;;;24.00;46.86
70343;BME280;57767;42.068;24.752;2023-08-20T00:46:32;98974.47;;;23.98;46.60
70343;BME280;57767;42.068;24.752;2023-08-20T00:47:34;98965.88;;;23.96;46.83
70343;BME280;57767;42.068;24.752;2023-08-20T00:48:37;98976.31;;;24.02;47.03
70343;BME280;57767;42.068;24.752;2023-08-20T00:49:40;98975.50;;;24.02;46.33
70343;BME280;57767;42.068;24.752;2023-08-20T00:50:42;98983.59;;;24.02;46.48
70343;BME280;57767;42.068;24.752;2023-08-20T00:51:45;98968.50;;;24.01;46.68
70343;BME280;57767;42.068;24.752;2023-08-20T00:52:47;98970.38;;;24.00;46.82
70343;BME280;57767;42.068;24.752;2023-08-20T00:53:48;98974.69;;;24.01;46.54
70343;BME280;57767;42.068;24.752;2023-08-20T00:54:50;98978.72;;;24.04;46.62
70343;BME280;57767;42.068;24.752;2023-08-20T00:55:52;98980.31;;;24.05;46.63
70343;BME280;57767;42.068;24.752;2023-08-20T00:56:55;98976.00;;;24.04;46.75
70343;BME280;57767;42.068;24.752;2023-08-20T00:57:57;98977.63;;;24.05;46.53
70343;BME280;57767;42.068;24.752;2023-08-20T00:58:59;98988.13;;;24.06;46.96
70343;BME280;57767;42.068;24.752;2023-08-20T01:00:01;98974.91;;;24.05;46.74
70343;BME280;57767;42.068;24.752;2023-08-20T01:01:05;98974.31;;;24.08;46.80
70343;BME280;57767;42.068;24.752;2023-08-20T01:02:07;98974.00;;;24.09;46.72
70343;BME280;57767;42.068;24.752;2023-08-20T01:03:09;98972.69;;;24.07;46.87
70343;BME280;57767;42.068;24.752;2023-08-20T01:04:11;98975.09;;;24.08;46.73
70343;BME280;57767;42.068;24.752;2023-08-20T01:05:15;98979.13;;;24.11;46.70
70343;BME280;57767;42.068;24.752;2023-08-20T01:08:13;98980.22;;;24.10;46.99
70343;BME280;57767;42.068;24.752;2023-08-20T01:09:48;98972.13;;;24.10;46.91
70343;BME280;57767;42.068;24.752;2023-08-20T01:11:02;98976.19;;;24.07;46.84
70343;BME280;57767;42.068;24.752;2023-08-20T01:12:06;98970.63;;;24.04;46.68
70343;BME280;57767;42.068;24.752;2023-08-20T01:13:08;98972.50;;;24.03;46.71
70343;BME280;57767;42.068;24.752;2023-08-20T01:14:17;98978.72;;;24.04;47.71
70343;BME280;57767;42.068;24.752;2023-08-20T01:15:19;98971.72;;;24.03;48.79
70343;BME280;57767;42.068;24.752;2023-08-20T01:16:21;98974.69;;;24.01;48.51
70343;BME280;57767;42.068;24.752;2023-08-20T01:17:22;98977.91;;;24.03;48.93
70343;BME280;57767;42.068;24.752;2023-08-20T01:18:25;98972.78;;;24.02;49.01
70343;BME280;57767;42.068;24.752;2023-08-20T01:19:27;98962.69;;;23.93;48.65
70343;BME280;57767;42.068;24.752;2023-08-20T01:20:33;98974.19;;;23.99;48.63
70343;BME280;57767;42.068;24.752;2023-08-20T01:21:37;98972.28;;;24.00;49.66
70343;BME280;57767;42.068;24.752;2023-08-20T01:26:40;98967.63;;;23.86;49.85
70343;BME280;57767;42.068;24.752;2023-08-20T01:29:11;98965.88;;;23.77;49.75
70343;BME280;57767;42.068;24.752;2023-08-20T01:30:14;98958.09;;;23.75;50.25
70343;BME280;57767;42.068;24.752;2023-08-20T01:31:19;98960.78;;;23.75;49.94
70343;BME280;57767;42.068;24.752;2023-08-20T01:32:22;98961.06;;;23.74;49.40
70343;BME280;57767;42.068;24.752;2023-08-20T01:33:25;98950.84;;;23.71;49.66
70343;BME280;57767;42.068;24.752;2023-08-20T01:34:27;98945.75;;;23.69;49.40
70343;BME280;57767;42.068;24.752;2023-08-20T01:35:29;98957.66;;;23.68;50.12
70343;BME280;57767;42.068;24.752;2023-08-20T01:36:31;98950.94;;;23.66;50.12
70343;BME280;57767;42.068;24.752;2023-08-20T01:37:33;98945.56;;;23.66;49.98
70343;BME280;57767;42.068;24.752;2023-08-20T01:38:36;98952.03;;;23.65;49.85
70343;BME280;57767;42.068;24.752;2023-08-20T01:39:38;98949.63;;;23.63;49.64
70343;BME280;57767;42.068;24.752;2023-08-20T01:40:39;98944.81;;;23.60;50.25
70343;BME280;57767;42.068;24.752;2023-08-20T01:41:41;98943.16;;;23.64;50.48
70343;BME280;57767;42.068;24.752;2023-08-20T01:42:43;98950.19;;;23.60;50.69
70343;BME280;57767;42.068;24.752;2023-08-20T01:43:45;98946.97;;;23.58;50.37
70343;BME280;57767;42.068;24.752;2023-08-20T01:44:47;98938.38;;;23.56;50.57
70343;BME280;57767;42.068;24.752;2023-08-20T01:45:48;98948.06;;;23.57;50.70
70343;BME280;57767;42.068;24.752;2023-08-20T01:46:50;98948.41;;;23.55;50.39
70343;BME280;57767;42.068;24.752;2023-08-20T01:47:55;98946.47;;;23.56;50.35
70343;BME280;57767;42.068;24.752;2023-08-20T01:48:57;98950.28;;;23.55;50.67
70343;BME280;57767;42.068;24.752;2023-08-20T01:49:59;98950.06;;;23.51;50.81
70343;BME280;57767;42.068;24.752;2023-08-20T01:51:00;98936.31;;;23.48;50.70
70343;BME280;57767;42.068;24.752;2023-08-20T01:52:02;98942.78;;;23.52;51.00
70343;BME280;57767;42.068;24.752;2023-08-20T01:53:05;98945.47;;;23.52;51.53
70343;BME280;57767;42.068;24.752;2023-08-20T01:54:07;98946.81;;;23.49;50.73
70343;BME280;57767;42.068;24.752;2023-08-20T01:55:09;98946.28;;;23.47;50.53
70343;BME280;57767;42.068;24.752;2023-08-20T01:56:12;98944.41;;;23.48;50.13
70343;BME280;57767;42.068;24.752;2023-08-20T01:57:14;98942.78;;;23.47;50.47
70343;BME280;57767;42.068;24.752;2023-08-20T01:58:16;98942.28;;;23.45;50.84
70343;BME280;57767;42.068;24.752;2023-08-20T01:59:17;98947.19;;;23.43;51.48
70343;BME280;57767;42.068;24.752;2023-08-20T02:00:20;98944.59;;;23.33;50.98
70343;BME280;57767;42.068;24.752;2023-08-20T02:01:22;98941.31;;;23.36;51.07
70343;BME280;57767;42.068;24.752;2023-08-20T02:02:24;98931.72;;;23.30;51.66
70343;BME280;57767;42.068;24.752;2023-08-20T02:03:26;98943.31;;;23.30;51.45
70343;BME280;57767;42.068;24.752;2023-08-20T02:04:28;98938.25;;;23.23;51.23
70343;BME280;57767;42.068;24.752;2023-08-20T02:05:29;98943.13;;;23.21;50.68
70343;BME280;57767;42.068;24.752;2023-08-20T02:06:31;98946.63;;;23.22;51.59
70343;BME280;57767;42.068;24.752;2023-08-20T02:07:33;98947.19;;;23.19;51.58
70343;BME280;57767;42.068;24.752;2023-08-20T02:08:35;98948.22;;;22.99;51.33
70343;BME280;57767;42.068;24.752;2023-08-20T02:09:37;98939.41;;;22.94;51.91
70343;BME280;57767;42.068;24.752;2023-08-20T02:10:39;98937.59;;;22.89;51.95
70343;BME280;57767;42.068;24.752;2023-08-20T02:11:41;98945.78;;;22.79;52.20
70343;BME280;57767;42.068;24.752;2023-08-20T02:12:43;98944.19;;;22.73;52.03
70343;BME280;57767;42.068;24.752;2023-08-20T02:13:45;98946.41;;;22.66;52.44
70343;BME280;57767;42.068;24.752;2023-08-20T02:14:46;98943.66;;;22.71;52.90
70343;BME280;57767;42.068;24.752;2023-08-20T02:16:00;98945.78;;;22.74;52.66
70343;BME280;57767;42.068;24.752;2023-08-20T02:17:03;98946.06;;;22.77;53.21
70343;BME280;57767;42.068;24.752;2023-08-20T02:18:05;98933.16;;;22.69;52.21
70343;BME280;57767;42.068;24.752;2023-08-20T02:19:07;98940.94;;;22.76;52.16
70343;BME280;57767;42.068;24.752;2023-08-20T02:20:09;98943.41;;;22.67;52.83
70343;BME280;57767;42.068;24.752;2023-08-20T02:21:14;98933.53;;;22.63;53.02
70343;BME280;57767;42.068;24.752;2023-08-20T02:22:16;98940.97;;;22.71;52.94
70343;BME280;57767;42.068;24.752;2023-08-20T02:23:19;98937.19;;;22.72;52.55
70343;BME280;57767;42.068;24.752;2023-08-20T02:24:20;98941.97;;;22.80;52.75
70343;BME280;57767;42.068;24.752;2023-08-20T02:25:23;98933.94;;;22.75;52.63
70343;BME280;57767;42.068;24.752;2023-08-20T02:26:26;98941.19;;;22.74;52.44
70343;BME280;57767;42.068;24.752;2023-08-20T02:27:28;98937.19;;;22.77;52.26
70343;BME280;57767;42.068;24.752;2023-08-20T02:28:30;98948.47;;;22.79;52.61
70343;BME280;57767;42.068;24.752;2023-08-20T02:29:31;98942.56;;;22.77;52.86
70343;BME280;57767;42.068;24.752;2023-08-20T02:30:40;98945.97;;;22.82;52.91
70343;BME280;57767;42.068;24.752;2023-08-20T02:31:42;98938.72;;;22.83;52.22
70343;BME280;57767;42.068;24.752;2023-08-20T02:32:43;98949.72;;;22.86;51.89
70343;BME280;57767;42.068;24.752;2023-08-20T02:33:45;98945.13;;;22.87;52.22
70343;BME280;57767;42.068;24.752;2023-08-20T02:34:51;98947.59;;;22.83;52.36
70343;BME280;57767;42.068;24.752;2023-08-20T02:35:53;98948.34;;;22.89;52.34
70343;BME280;57767;42.068;24.752;2023-08-20T02:36:56;98947.78;;;22.92;52.18
70343;BME280;57767;42.068;24.752;2023-08-20T02:37:58;98948.28;;;22.94;51.97
70343;BME280;57767;42.068;24.752;2023-08-20T02:39:00;98952.88;;;22.94;50.56
70343;BME280;57767;42.068;24.752;2023-08-20T02:40:02;98960.66;;;22.95;51.56
70343;BME280;57767;42.068;24.752;2023-08-20T02:41:06;98952.81;;;22.99;52.71
70343;BME280;57767;42.068;24.752;2023-08-20T02:42:08;98950.69;;;22.96;53.00
70343;BME280;57767;42.068;24.752;2023-08-20T02:43:10;98948.81;;;22.96;54.00
70343;BME280;57767;42.068;24.752;2023-08-20T02:44:12;98954.19;;;22.96;53.37
70343;BME280;57767;42.068;24.752;2023-08-20T02:45:15;98955.78;;;22.97;52.59
70343;BME280;57767;42.068;24.752;2023-08-20T02:46:16;98956.34;;;22.94;53.83
70343;BME280;57767;42.068;24.752;2023-08-20T02:47:18;98953.38;;;22.96;53.22
70343;BME280;57767;42.068;24.752;2023-08-20T02:48:20;98948.56;;;22.93;52.90
70343;BME280;57767;42.068;24.752;2023-08-20T02:49:22;98953.09;;;22.97;52.28
70343;BME280;57767;42.068;24.752;2023-08-20T02:50:23;98954.25;;;22.91;52.75
70343;BME280;57767;42.068;24.752;2023-08-20T02:51:25;98957.75;;;22.92;52.13
70343;BME280;57767;42.068;24.752;2023-08-20T02:52:27;98955.34;;;22.90;51.81
70343;BME280;57767;42.068;24.752;2023-08-20T02:53:29;98966.13;;;22.90;52.03
70343;BME280;57767;42.068;24.752;2023-08-20T02:54:30;98951.31;;;22.88;53.28
70343;BME280;57767;42.068;24.752;2023-08-20T02:55:33;98958.03;;;22.90;53.55
70343;BME280;57767;42.068;24.752;2023-08-20T02:56:36;98956.94;;;22.91;53.75
70343;BME280;57767;42.068;24.752;2023-08-20T02:57:38;98954.81;;;22.88;54.22
70343;BME280;57767;42.068;24.752;2023-08-20T02:58:40;98961.34;;;22.82;52.80
70343;BME280;57767;42.068;24.752;2023-08-20T02:59:41;98956.03;;;22.72;52.25
70343;BME280;57767;42.068;24.752;2023-08-20T03:00:43;98955.28;;;22.66;52.56
70343;BME280;57767;42.068;24.752;2023-08-20T03:01:46;98960.44;;;22.63;52.79
70343;BME280;57767;42.068;24.752;2023-08-20T03:02:48;98962.59;;;22.61;53.36
70343;BME280;57767;42.068;24.752;2023-08-20T03:03:50;98968.63;;;22.47;53.51
70343;BME280;57767;42.068;24.752;2023-08-20T03:04:52;98967.53;;;22.54;53.89
70343;BME280;57767;42.068;24.752;2023-08-20T03:05:54;98953.06;;;22.44;52.94
70343;BME280;57767;42.068;24.752;2023-08-20T03:06:56;98963.50;;;22.51;53.49
70343;BME280;57767;42.068;24.752;2023-08-20T03:08:01;98962.63;;;22.56;53.14
70343;BME280;57767;42.068;24.752;2023-08-20T03:09:03;98954.19;;;22.38;52.76
70343;BME280;57767;42.068;24.752;2023-08-20T03:10:06;98965.69;;;22.44;53.21
70343;BME280;57767;42.068;24.752;2023-08-20T03:11:08;98965.19;;;22.42;53.75
70343;BME280;57767;42.068;24.752;2023-08-20T03:12:10;98963.81;;;22.44;53.40
70343;BME280;57767;42.068;24.752;2023-08-20T03:13:12;98961.66;;;22.46;54.02
70343;BME280;57767;42.068;24.752;2023-08-20T03:14:13;98967.31;;;22.45;53.48
70343;BME280;57767;42.068;24.752;2023-08-20T03:15:15;98961.41;;;22.43;53.19
70343;BME280;57767;42.068;24.752;2023-08-20T03:16:17;98964.41;;;22.41;53.63
70343;BME280;57767;42.068;24.752;2023-08-20T03:17:19;98960.09;;;22.40;53.54
70343;BME280;57767;42.068;24.752;2023-08-20T03:18:21;98964.06;;;22.48;53.54
70343;BME280;57767;42.068;24.752;2023-08-20T03:19:22;98968.41;;;22.44;53.37
70343;BME280;57767;42.068;24.752;2023-08-20T03:20:24;98970.81;;;22.45;53.96
70343;BME280;57767;42.068;24.752;2023-08-20T03:21:26;98968.13;;;22.45;53.14
70343;BME280;57767;42.068;24.752;2023-08-20T03:22:28;98969.97;;;22.50;53.04
70343;BME280;57767;42.068;24.752;2023-08-20T03:23:29;98967.00;;;22.51;53.39
70343;BME280;57767;42.068;24.752;2023-08-20T03:24:31;98965.94;;;22.47;53.16
70343;BME280;57767;42.068;24.752;2023-08-20T03:25:33;98967.56;;;22.48;52.86
70343;BME280;57767;42.068;24.752;2023-08-20T03:26:35;98964.88;;;22.48;53.19
70343;BME280;57767;42.068;24.752;2023-08-20T03:27:37;98964.69;;;22.40;53.20
70343;BME280;57767;42.068;24.752;2023-08-20T03:28:39;98966.56;;;22.39;53.70
70343;BME280;57767;42.068;24.752;2023-08-20T03:29:41;98970.28;;;22.43;53.85
70343;BME280;57767;42.068;24.752;2023-08-20T03:30:43;98966.28;;;22.41;53.44
70343;BME280;57767;42.068;24.752;2023-08-20T03:31:44;98966.56;;;22.39;54.21
70343;BME280;57767;42.068;24.752;2023-08-20T03:32:46;98965.50;;;22.35;53.97
70343;BME280;57767;42.068;24.752;2023-08-20T03:33:48;98961.75;;;22.36;54.04
70343;BME280;57767;42.068;24.752;2023-08-20T03:34:50;98962.28;;;22.38;53.72
70343;BME280;57767;42.068;24.752;2023-08-20T03:35:52;98965.50;;;22.40;54.37
70343;BME280;57767;42.068;24.752;2023-08-20T03:36:54;98965.50;;;22.40;54.15
70343;BME280;57767;42.068;24.752;2023-08-20T03:37:56;98970.53;;;22.47;54.44
70343;BME280;57767;42.068;24.752;2023-08-20T03:38:57;98965.38;;;22.50;54.22
70343;BME280;57767;42.068;24.752;2023-08-20T03:39:59;98966.94;;;22.57;54.61
70343;BME280;57767;42.068;24.752;2023-08-20T03:41:01;98961.28;;;22.58;54.81
70343;BME280;57767;42.068;24.752;2023-08-20T03:42:03;98961.34;;;22.53;53.78
70343;BME280;57767;42.068;24.752;2023-08-20T03:43:05;98959.38;;;22.59;53.51
70343;BME280;57767;42.068;24.752;2023-08-20T03:44:07;98961.50;;;22.62;54.33
70343;BME280;57767;42.068;24.752;2023-08-20T03:45:09;98962.03;;;22.64;54.57
70343;BME280;57767;42.068;24.752;2023-08-20T03:46:11;98970.03;;;22.69;54.91
70343;BME280;57767;42.068;24.752;2023-08-20T03:47:13;98966.88;;;22.67;54.01
70343;BME280;57767;42.068;24.752;2023-08-20T03:48:14;98969.84;;;22.65;54.55
70343;BME280;57767;42.068;24.752;2023-08-20T03:49:16;98968.22;;;22.64;54.64
70343;BME280;57767;42.068;24.752;2023-08-20T03:50:18;98967.63;;;22.67;53.94
70343;BME280;57767;42.068;24.752;2023-08-20T03:51:20;98961.94;;;22.74;54.03
70343;BME280;57767;42.068;24.752;2023-08-20T03:52:22;98958.72;;;22.77;54.96
70343;BME280;57767;42.068;24.752;2023-08-20T03:53:24;98955.94;;;22.82;54.77
70343;BME280;57767;42.068;24.752;2023-08-20T03:54:25;98964.28;;;22.85;54.26
70343;BME280;57767;42.068;24.752;2023-08-20T03:55:27;98965.06;;;22.86;54.26
70343;BME280;57767;42.068;24.752;2023-08-20T03:56:30;98964.50;;;22.89;54.01
70343;BME280;57767;42.068;24.752;2023-08-20T03:57:32;98945.13;;;22.87;54.25
70343;BME280;57767;42.068;24.752;2023-08-20T03:58:34;98967.38;;;22.98;53.74
70343;BME280;57767;42.068;24.752;2023-08-20T03:59:36;98953.66;;;22.94;53.79
70343;BME280;57767;42.068;24.752;2023-08-20T04:00:38;98963.03;;;23.02;53.93
70343;BME280;57767;42.068;24.752;2023-08-20T04:01:40;98963.81;;;23.02;53.71
70343;BME280;57767;42.068;24.752;2023-08-20T04:02:42;98957.06;;;23.05;53.58
70343;BME280;57767;42.068;24.752;2023-08-20T04:03:45;98961.06;;;23.07;54.04
70343;BME280;57767;42.068;24.752;2023-08-20T04:04:47;98966.97;;;23.09;53.80
70343;BME280;57767;42.068;24.752;2023-08-20T04:05:49;98961.81;;;23.13;54.60
70343;BME280;57767;42.068;24.752;2023-08-20T04:06:51;98966.91;;;23.14;55.27
70343;BME280;57767;42.068;24.752;2023-08-20T04:07:53;98962.06;;;23.16;54.84
70343;BME280;57767;42.068;24.752;2023-08-20T04:08:55;98960.38;;;23.20;55.47
70343;BME280;57767;42.068;24.752;2023-08-20T04:09:56;98964.16;;;23.19;56.39
70343;BME280;57767;42.068;24.752;2023-08-20T04:10:58;98969.25;;;23.21;55.99
70343;BME280;57767;42.068;24.752;2023-08-20T04:12:00;98964.16;;;23.19;56.19
70343;BME280;57767;42.068;24.752;2023-08-20T04:13:02;98974.94;;;23.19;56.16
70343;BME280;57767;42.068;24.752;2023-08-20T04:14:04;98971.75;;;23.17;56.79
70343;BME280;57767;42.068;24.752;2023-08-20T04:15:06;98970.34;;;23.20;56.98
70343;BME280;57767;42.068;24.752;2023-08-20T04:16:08;98973.91;;;23.15;56.87
70343;BME280;57767;42.068;24.752;2023-08-20T04:17:10;98970.41;;;23.15;56.57
70343;BME280;57767;42.068;24.752;2023-08-20T04:18:12;98972.50;;;23.18;56.78
70343;BME280;57767;42.068;24.752;2023-08-20T04:19:14;98972.31;;;23.14;56.93
70343;BME280;57767;42.068;24.752;2023-08-20T04:20:16;98970.69;;;23.13;57.31
70343;BME280;57767;42.068;24.752;2023-08-20T04:21:18;98974.47;;;23.12;56.69
70343;BME280;57767;42.068;24.752;2023-08-20T04:22:20;98969.91;;;23.13;56.01
70343;BME280;57767;42.068;24.752;2023-08-20T04:23:22;98965.31;;;23.13;55.80
70343;BME280;57767;42.068;24.752;2023-08-20T04:24:24;98972.31;;;23.14;56.06
70343;BME280;57767;42.068;24.752;2023-08-20T04:25:26;98971.75;;;23.17;56.55
70343;BME280;57767;42.068;24.752;2023-08-20T04:26:28;98974.44;;;23.17;56.39
70343;BME280;57767;42.068;24.752;2023-08-20T04:27:30;98979.50;;;23.19;57.86
70343;BME280;57767;42.068;24.752;2023-08-20T04:28:32;98969.53;;;23.19;57.58
70343;BME280;57767;42.068;24.752;2023-08-20T04:29:34;98966.34;;;23.17;57.70
70343;BME280;57767;42.068;24.752;2023-08-20T04:30:35;98977.84;;;23.23;58.75
70343;BME280;57767;42.068;24.752;2023-08-20T04:31:37;98979.97;;;23.26;59.81
70343;BME280;57767;42.068;24.752;2023-08-20T04:32:39;98977.56;;;23.25;59.34
70343;BME280;57767;42.068;24.752;2023-08-20T04:33:41;98976.19;;;23.27;59.78
70343;BME280;57767;42.068;24.752;2023-08-20T04:34:43;98981.59;;;23.27;60.26
70343;BME280;57767;42.068;24.752;2023-08-20T04:35:45;98969.22;;;23.26;60.67
70343;BME280;57767;42.068;24.752;2023-08-20T04:36:47;98985.59;;;23.30;59.86
70343;BME280;57767;42.068;24.752;2023-08-20T04:37:48;98981.78;;;23.31;57.76
70343;BME280;57767;42.068;24.752;2023-08-20T04:38:50;98968.91;;;23.28;60.41
70343;BME280;57767;42.068;24.752;2023-08-20T04:39:53;98978.53;;;23.34;59.99
70343;BME280;57767;42.068;24.752;2023-08-20T04:40:55;98978.00;;;23.32;59.50
70343;BME280;57767;42.068;24.752;2023-08-20T04:41:56;98971.53;;;23.33;59.93
70343;BME280;57767;42.068;24.752;2023-08-20T04:42:59;98971.47;;;23.38;60.49
70343;BME280;57767;42.068;24.752;2023-08-20T04:44:00;98966.66;;;23.35;60.24
70343;BME280;57767;42.068;24.752;2023-08-20T04:45:03;98977.59;;;23.43;61.89
70343;BME280;57767;42.068;24.752;2023-08-20T04:46:05;98979.19;;;23.44;59.81
70343;BME280;57767;42.068;24.752;2023-08-20T04:47:11;98974.34;;;23.46;61.12
70343;BME280;57767;42.068;24.752;2023-08-20T04:48:14;98981.84;;;23.49;62.44
70343;BME280;57767;42.068;24.752;2023-08-20T04:49:16;98974.56;;;23.50;60.62
70343;BME280;57767;42.068;24.752;2023-08-20T04:50:18;98979.13;;;23.54;60.70
70343;BME280;57767;42.068;24.752;2023-08-20T04:51:22;98988.81;;;23.55;58.69
70343;BME280;57767;42.068;24.752;2023-08-20T04:52:24;98981.22;;;23.57;55.72
70343;BME280;57767;42.068;24.752;2023-08-20T04:53:26;98977.16;;;23.60;53.69
70343;BME280;57767;42.068;24.752;2023-08-20T04:54:27;98980.94;;;23.59;53.99
70343;BME280;57767;42.068;24.752;2023-08-20T04:55:29;98984.66;;;23.63;53.54
70343;BME280;57767;42.068;24.752;2023-08-20T04:56:31;98981.91;;;23.68;53.39
70343;BME280;57767;42.068;24.752;2023-08-20T04:57:33;98981.03;;;23.73;52.93
70343;BME280;57767;42.068;24.752;2023-08-20T04:58:35;98986.13;;;23.74;52.86
70343;BME280;57767;42.068;24.752;2023-08-20T04:59:37;98984.75;;;23.77;52.06
70343;BME280;57767;42.068;24.752;2023-08-20T05:00:39;98987.75;;;23.75;52.63
70343;BME280;57767;42.068;24.752;2023-08-20T05:01:41;98985.03;;;23.75;52.77
70343;BME280;57767;42.068;24.752;2023-08-20T05:02:43;98992.56;;;23.78;52.81
70343;BME280;57767;42.068;24.752;2023-08-20T05:03:45;98986.06;;;23.79;53.18
70343;BME280;57767;42.068;24.752;2023-08-20T05:04:47;98993.56;;;23.82;53.17
70343;BME280;57767;42.068;24.752;2023-08-20T05:05:50;98987.59;;;23.85;53.22
70343;BME280;57767;42.068;24.752;2023-08-20T05:06:52;98991.31;;;23.89;53.06
70343;BME280;57767;42.068;24.752;2023-08-20T05:07:53;98981.84;;;23.92;52.75
70343;BME280;57767;42.068;24.752;2023-08-20T05:08:55;98987.25;;;23.92;52.83
70343;BME280;57767;42.068;24.752;2023-08-20T05:09:57;98993.13;;;23.94;52.68
70343;BME280;57767;42.068;24.752;2023-08-20T05:10:59;98980.44;;;23.94;53.10
70343;BME280;57767;42.068;24.752;2023-08-20T05:12:03;98985.53;;;23.96;52.73
70343;BME280;57767;42.068;24.752;2023-08-20T05:13:04;98992.53;;;23.97;55.27
70343;BME280;57767;42.068;24.752;2023-08-20T05:14:06;98993.84;;;24.00;54.54
70343;BME280;57767;42.068;24.752;2023-08-20T05:15:08;98992.47;;;24.02;51.66
70343;BME280;57767;42.068;24.752;2023-08-20T05:16:10;98995.69;;;24.04;50.78
70343;BME280;57767;42.068;24.752;2023-08-20T05:17:12;98996.50;;;24.05;51.69
70343;BME280;57767;42.068;24.752;2023-08-20T05:18:14;99000.28;;;24.04;52.68
70343;BME280;57767;42.068;24.752;2023-08-20T05:19:15;98998.09;;;24.06;52.26
70343;BME280;57767;42.068;24.752;2023-08-20T05:20:17;99000.81;;;24.06;52.33
70343;BME280;57767;42.068;24.752;2023-08-20T05:21:19;98998.09;;;24.06;52.78
70343;BME280;57767;42.068;24.752;2023-08-20T05:22:21;99009.88;;;24.10;54.31
70343;BME280;57767;42.068;24.752;2023-08-20T05:23:25;98998.00;;;24.11;53.11
70343;BME280;57767;42.068;24.752;2023-08-20T05:24:27;99005.53;;;24.14;53.88
70343;BME280;57767;42.068;24.752;2023-08-20T05:25:29;99010.34;;;24.17;53.86
70343;BME280;57767;42.068;24.752;2023-08-20T05:26:31;99007.34;;;24.18;53.63
70343;BME280;57767;42.068;24.752;2023-08-20T05:27:32;99012.13;;;24.21;54.96
70343;BME280;57767;42.068;24.752;2023-08-20T05:28:38;99014.03;;;24.21;55.33
70343;BME280;57767;42.068;24.752;2023-08-20T05:29:40;99015.09;;;24.25;54.90
70343;BME280;57767;42.068;24.752;2023-08-20T05:30:42;99013.72;;;24.27;54.32
70343;BME280;57767;42.068;24.752;2023-08-20T05:31:44;99012.31;;;24.30;53.45
70343;BME280;57767;42.068;24.752;2023-08-20T05:32:46;99017.63;;;24.35;52.41
70343;BME280;57767;42.068;24.752;2023-08-20T05:33:47;99015.44;;;24.37;51.89